Time;durP1;ratioP1;P1;durP2;ratioP2;P2;SDS_P1;SDS_P2;PMS_P1;PMS_P2;Temp;Humidity;BMP_temperature;BMP_pressure;BME280_temperature;BME280_humidity;BME280_pressure;Samples;Min_cycle;Max_cycle;Signal;HPM_P1;HPM_P2
2023/05/01 00:00:45;;;;;;;;;;;;;;;9.50;57.76;101697.53;4105998;28;19977;-67
2023/05/01 00:02:47;;;;;;;;;;;;;;;9.48;57.84;101695.97;4105669;28;20009;-66
2023/05/01 00:04:49;;;;;;;;;;;;;;;9.45;57.81;101694.44;4106651;28;20025;-66
2023/05/01 00:06:51;;;;;;;;;;;;;;;9.42;57.78;101699.25;4106653;28;20041;-66
2023/05/01 00:08:55;;;;;;;;;;;;;;;9.40;57.77;101693.16;4089026;28;20050;-66
2023/05/01 00:10:57;;;;;;;;;;;;;;;9.38;57.80;101694.16;4106102;28;20483;-66
2023/05/01 00:12:59;;;;;;;;;;;;;;;9.35;57.72;101697.13;4105304;28;20001;-66
2023/05/01 00:15:01;;;;;;;;;;;;;;;9.35;57.74;101701.69;4106011;28;20366;-66
2023/05/01 00:17:03;;;;;;;;;;;;;;;9.34;57.54;101703.53;4104283;28;20025;-66
2023/05/01 00:19:05;;;;;;;;;;;;;;;9.33;57.77;101699.13;4105890;28;20033;-66
2023/05/01 00:21:07;;;;;;;;;;;;;;;9.32;57.79;101697.41;4105756;28;19930;-66
2023/05/01 00:23:11;;;;;;;;;;;;;;;9.30;57.81;101694.03;4105160;28;20017;-66
2023/05/01 00:25:14;;;;;;;;;;;;;;;9.29;58.06;101692.31;4088334;29;20042;-66
2023/05/01 00:27:16;;;;;;;;;;;;;;;9.28;57.92;101690.63;4105823;28;20574;-66
2023/05/01 00:29:18;;;;;;;;;;;;;;;9.23;57.79;101698.28;4105728;28;20373;-66
2023/05/01 00:31:20;;;;;;;;;;;;;;;9.18;57.87;101693.38;4106171;28;20017;-66
2023/05/01 00:33:22;;;;;;;;;;;;;;;9.13;58.39;101692.91;4104864;28;20018;-66
2023/05/01 00:35:24;;;;;;;;;;;;;;;9.09;58.55;101687.97;4106472;28;20021;-66
2023/05/01 00:37:26;;;;;;;;;;;;;;;9.04;58.24;101688.41;4106131;28;20084;-66
2023/05/01 00:39:28;;;;;;;;;;;;;;;9.01;58.24;101691.38;4105912;28;20018;-66
2023/05/01 00:41:32;;;;;;;;;;;;;;;8.95;58.46;101682.03;4088390;29;20476;-66
2023/05/01 00:43:34;;;;;;;;;;;;;;;8.95;58.97;101683.88;4087305;28;20016;-66
2023/05/01 00:45:36;;;;;;;;;;;;;;;8.96;58.70;101680.19;4089654;28;20034;-66
2023/05/01 00:47:38;;;;;;;;;;;;;;;8.95;58.56;101679.34;4105915;28;20341;-66
2023/05/01 00:49:40;;;;;;;;;;;;;;;8.93;58.52;101683.16;4106183;28;20090;-66
2023/05/01 00:51:42;;;;;;;;;;;;;;;8.92;58.63;101681.44;4072119;29;20378;-66
2023/05/01 00:53:44;;;;;;;;;;;;;;;8.89;58.67;101677.22;4105729;28;20045;-66
2023/05/01 00:55:46;;;;;;;;;;;;;;;8.85;59.11;101678.50;4105225;28;20014;-66
2023/05/01 00:57:50;;;;;;;;;;;;;;;8.84;59.24;101676.81;4072158;29;20022;-66
2023/05/01 00:59:52;;;;;;;;;;;;;;;8.80;59.20;101673.53;4105280;28;20364;-66
2023/05/01 01:01:54;;;;;;;;;;;;;;;8.76;59.03;101673.94;4072151;29;20468;-65
2023/05/01 01:03:56;;;;;;;;;;;;;;;8.72;59.34;101673.41;4065073;29;20556;-66
2023/05/01 01:06:00;;;;;;;;;;;;;;;8.70;59.45;101669.13;4104828;28;20024;-66
2023/05/01 01:08:05;;;;;;;;;;;;;;;8.67;59.47;101667.59;4106045;28;20464;-66
2023/05/01 01:10:09;;;;;;;;;;;;;;;8.64;59.72;101670.56;4105737;28;20005;-66
2023/05/01 01:12:16;;;;;;;;;;;;;;;8.65;59.44;101664.16;4087952;29;20049;-66
2023/05/01 01:14:21;;;;;;;;;;;;;;;8.63;59.64;101666.16;4089548;28;20006;-66
2023/05/01 01:16:38;;;;;;;;;;;;;;;8.62;59.83;101670.72;4106880;28;19966;-66
2023/05/01 01:18:43;;;;;;;;;;;;;;;8.57;60.15;101678.34;4072709;29;20753;-66
2023/05/01 01:20:45;;;;;;;;;;;;;;;8.55;59.99;101669.56;4105220;28;20038;-65
2023/05/01 01:22:54;;;;;;;;;;;;;;;8.54;60.44;101667.00;4105019;28;20025;-66
2023/05/01 01:25:05;;;;;;;;;;;;;;;8.55;60.46;101664.19;4104228;28;20025;-66
2023/05/01 01:27:18;;;;;;;;;;;;;;;8.56;60.17;101654.28;4104903;28;20013;-66
2023/05/01 01:29:39;;;;;;;;;;;;;;;8.54;60.36;101649.03;4105296;28;20476;-66
2023/05/01 01:31:45;;;;;;;;;;;;;;;8.52;60.16;101655.53;4086663;29;20057;-66
2023/05/01 01:34:01;;;;;;;;;;;;;;;8.48;60.17;101665.75;4088031;29;20010;-66
2023/05/01 01:36:06;;;;;;;;;;;;;;;8.47;60.47;101654.09;4105298;28;20640;-66
2023/05/01 01:38:09;;;;;;;;;;;;;;;8.46;60.49;101655.13;4104314;28;20054;-66
2023/05/01 01:40:13;;;;;;;;;;;;;;;8.45;60.43;101650.72;4105984;28;20049;-65
2023/05/01 01:42:15;;;;;;;;;;;;;;;8.40;60.51;101654.78;4087915;29;20104;-66
2023/05/01 01:44:20;;;;;;;;;;;;;;;8.39;60.58;101656.63;4088590;28;19973;-66
2023/05/01 01:46:22;;;;;;;;;;;;;;;8.36;60.80;101648.00;4105303;28;20022;-66
2023/05/01 01:48:27;;;;;;;;;;;;;;;8.35;60.52;101652.50;4105331;28;20021;-66
2023/05/01 01:50:30;;;;;;;;;;;;;;;8.35;60.93;101646.28;4106167;28;20010;-66
2023/05/01 01:52:33;;;;;;;;;;;;;;;8.34;61.19;101647.25;4102532;28;20030;-66
2023/05/01 01:54:35;;;;;;;;;;;;;;;8.33;61.07;101642.88;4073550;29;20025;-67
2023/05/01 01:56:37;;;;;;;;;;;;;;;8.28;61.41;101641.47;4092055;29;20466;-66
2023/05/01 01:58:39;;;;;;;;;;;;;;;8.25;61.49;101648.97;4107301;28;20021;-66
2023/05/01 02:00:41;;;;;;;;;;;;;;;8.21;61.44;101645.72;4108045;28;20333;-66
2023/05/01 02:02:43;;;;;;;;;;;;;;;8.19;61.41;101644.97;4074579;29;20010;-66
2023/05/01 02:04:45;;;;;;;;;;;;;;;8.15;61.31;101645.41;4108633;28;19930;-65
2023/05/01 02:06:52;;;;;;;;;;;;;;;8.12;61.54;101633.09;4075362;29;20018;-65
2023/05/01 02:08:54;;;;;;;;;;;;;;;8.08;61.53;101642.41;4108238;28;20018;-66
2023/05/01 02:10:58;;;;;;;;;;;;;;;8.02;61.46;101641.13;4075293;29;20051;-66
2023/05/01 02:13:00;;;;;;;;;;;;;;;7.98;61.64;101637.03;4091207;29;20017;-65
2023/05/01 02:15:03;;;;;;;;;;;;;;;7.94;61.82;101636.44;4106573;28;20004;-66
2023/05/01 02:17:05;;;;;;;;;;;;;;;7.95;61.80;101637.31;4091487;28;20054;-66
2023/05/01 02:19:07;;;;;;;;;;;;;;;7.93;61.84;101628.50;4105915;28;20017;-65
2023/05/01 02:21:09;;;;;;;;;;;;;;;7.96;61.87;101632.75;4107924;28;20017;-66
2023/05/01 02:23:13;;;;;;;;;;;;;;;7.99;61.73;101624.41;4107657;28;20018;-66
2023/05/01 02:25:16;;;;;;;;;;;;;;;8.00;61.94;101626.97;4108355;28;19930;-66
2023/05/01 02:27:20;;;;;;;;;;;;;;;7.99;61.73;101627.94;4107900;28;20024;-66
2023/05/01 02:29:24;;;;;;;;;;;;;;;8.00;62.04;101620.75;4091114;29;20021;-66
2023/05/01 02:31:26;;;;;;;;;;;;;;;8.05;61.45;101622.00;4075177;29;19998;-66
2023/05/01 02:33:29;;;;;;;;;;;;;;;8.12;61.63;101612.41;4106895;28;20018;-66
2023/05/01 02:35:30;;;;;;;;;;;;;;;8.17;61.25;101614.69;4075415;29;20025;-66
2023/05/01 02:37:32;;;;;;;;;;;;;;;8.16;61.46;101612.13;4107367;28;20037;-66
2023/05/01 02:39:36;;;;;;;;;;;;;;;8.15;61.15;101613.09;4074613;29;20033;-66
2023/05/01 02:41:38;;;;;;;;;;;;;;;8.16;60.87;101612.13;4091051;29;20022;-66
2023/05/01 02:43:40;;;;;;;;;;;;;;;8.19;60.24;101599.22;4073854;29;20014;-66
2023/05/01 02:45:43;;;;;;;;;;;;;;;8.33;60.04;101597.13;4089678;28;20464;-66
2023/05/01 02:47:45;;;;;;;;;;;;;;;8.39;59.89;101599.25;4106309;28;20026;-66
2023/05/01 02:49:47;;;;;;;;;;;;;;;8.43;59.34;101592.59;4107297;28;20024;-66
2023/05/01 02:51:49;;;;;;;;;;;;;;;8.47;59.41;101589.50;4106880;28;20484;-66
2023/05/01 02:53:51;;;;;;;;;;;;;;;8.46;59.09;101586.94;4105641;28;20361;-66
2023/05/01 02:55:58;;;;;;;;;;;;;;;8.44;59.00;101580.88;4091110;28;19934;-66
2023/05/01 02:58:01;;;;;;;;;;;;;;;8.41;59.13;101587.34;4104900;28;20021;-66
2023/05/01 03:00:08;;;;;;;;;;;;;;;8.35;58.85;101579.81;4089361;29;20021;-65
2023/05/01 03:02:10;;;;;;;;;;;;;;;8.27;59.20;101577.00;4074488;29;20031;-66
2023/05/01 03:04:12;;;;;;;;;;;;;;;8.20;59.44;101574.03;4108326;28;20009;-66
2023/05/01 03:06:14;;;;;;;;;;;;;;;8.14;59.74;101571.91;4106159;28;19934;-66
2023/05/01 03:08:16;;;;;;;;;;;;;;;8.14;60.00;101569.22;4107175;28;20017;-66
2023/05/01 03:10:18;;;;;;;;;;;;;;;8.08;60.11;101561.69;4074854;29;20037;-66
2023/05/01 03:12:21;;;;;;;;;;;;;;;8.03;60.33;101553.22;4075616;29;20030;-66
2023/05/01 03:14:24;;;;;;;;;;;;;;;7.98;60.72;101555.44;4090563;29;20412;-66
2023/05/01 03:16:26;;;;;;;;;;;;;;;7.99;60.05;101557.16;4107303;28;20356;-67
2023/05/01 03:18:28;;;;;;;;;;;;;;;8.02;60.26;101555.03;4107457;28;20045;-66
2023/05/01 03:20:30;;;;;;;;;;;;;;;7.99;60.39;101559.84;4106548;28;20379;-67
2023/05/01 03:22:34;;;;;;;;;;;;;;;7.95;60.47;101553.91;4074004;29;20139;-66
2023/05/01 03:24:36;;;;;;;;;;;;;;;7.91;60.61;101556.00;4106976;28;20020;-67
2023/05/01 03:26:38;;;;;;;;;;;;;;;7.87;60.80;101545.69;4089148;29;19930;-67
2023/05/01 03:28:41;;;;;;;;;;;;;;;7.86;61.02;101546.69;4089918;28;20017;-67
2023/05/01 03:30:44;;;;;;;;;;;;;;;7.84;60.91;101556.72;4089157;29;20047;-67
2023/05/01 03:32:46;;;;;;;;;;;;;;;7.84;60.58;101548.66;4106454;28;20041;-66
2023/05/01 03:34:55;;;;;;;;;;;;;;;7.83;60.69;101555.03;4073847;29;20026;-67
2023/05/01 03:36:58;;;;;;;;;;;;;;;7.78;60.98;101551.91;4105781;28;20021;-67
2023/05/01 03:39:03;;;;;;;;;;;;;;;7.73;60.98;101549.63;4089608;29;20050;-66
2023/05/01 03:41:24;;;;;;;;;;;;;;;7.70;61.01;101549.91;4105810;28;20018;-66
2023/05/01 03:43:53;;;;;;;;;;;;;;;7.69;61.15;101546.34;4097806;28;20028;-66
2023/05/01 03:46:06;;;;;;;;;;;;;;;7.68;61.26;101547.34;4089871;28;20009;-67
2023/05/01 03:48:08;;;;;;;;;;;;;;;7.68;61.35;101551.88;4089834;28;19926;-67
2023/05/01 03:50:11;;;;;;;;;;;;;;;7.66;61.32;101549.31;4089536;29;20017;-66
2023/05/01 03:52:16;;;;;;;;;;;;;;;7.66;61.43;101548.47;4088784;29;20049;-66
2023/05/01 03:54:19;;;;;;;;;;;;;;;7.62;61.46;101550.59;4104561;28;20041;-67
2023/05/01 03:56:34;;;;;;;;;;;;;;;7.59;61.61;101553.56;4106959;28;20018;-67
2023/05/01 03:58:37;;;;;;;;;;;;;;;7.56;61.97;101546.59;4075030;29;20466;-67
2023/05/01 04:00:41;;;;;;;;;;;;;;;7.54;61.88;101547.75;4088805;28;20021;-66
2023/05/01 04:02:44;;;;;;;;;;;;;;;7.54;62.06;101545.91;4104786;28;20025;-66
2023/05/01 04:04:50;;;;;;;;;;;;;;;7.56;61.92;101543.91;4106072;28;20477;-66
2023/05/01 04:06:52;;;;;;;;;;;;;;;7.60;61.55;101543.66;4089386;29;20345;-66
2023/05/01 04:08:54;;;;;;;;;;;;;;;7.65;61.28;101546.75;4089009;28;19978;-66
2023/05/01 04:10:56;;;;;;;;;;;;;;;7.69;60.77;101543.66;4106158;28;20355;-66
2023/05/01 04:12:58;;;;;;;;;;;;;;;7.69;60.82;101543.66;4088404;29;20429;-66
2023/05/01 04:15:00;;;;;;;;;;;;;;;7.69;60.87;101542.81;4088436;28;20377;-66
2023/05/01 04:17:03;;;;;;;;;;;;;;;7.69;61.03;101548.19;4089129;28;20029;-66
2023/05/01 04:19:10;;;;;;;;;;;;;;;7.73;61.16;101547.78;4089235;29;20025;-67
2023/05/01 04:21:17;;;;;;;;;;;;;;;7.72;61.06;101543.38;4104210;28;20025;-67
2023/05/01 04:23:22;;;;;;;;;;;;;;;7.72;60.94;101547.91;4087980;28;19977;-66
2023/05/01 04:25:25;;;;;;;;;;;;;;;7.72;61.30;101547.91;4088631;29;20028;-66
2023/05/01 04:27:32;;;;;;;;;;;;;;;7.73;60.99;101538.88;4087755;29;20025;-66
2023/05/01 04:29:34;;;;;;;;;;;;;;;7.71;61.10;101541.69;4105747;28;20326;-66
2023/05/01 04:31:36;;;;;;;;;;;;;;;7.70;60.71;101540.00;4087947;29;20014;-66
2023/05/01 04:33:40;;;;;;;;;;;;;;;7.81;60.62;101536.34;4088587;28;20026;-66
2023/05/01 04:35:42;;;;;;;;;;;;;;;7.83;60.32;101528.97;4073953;29;20029;-66
2023/05/01 04:37:44;;;;;;;;;;;;;;;7.82;59.86;101532.66;4104277;28;20025;-66
2023/05/01 04:39:47;;;;;;;;;;;;;;;7.87;59.34;101530.41;4088743;28;20050;-66
2023/05/01 04:41:49;;;;;;;;;;;;;;;7.90;58.77;101521.22;4088324;29;20391;-67
2023/05/01 04:43:51;;;;;;;;;;;;;;;8.02;59.00;101517.38;4088656;29;20017;-67
2023/05/01 04:45:54;;;;;;;;;;;;;;;8.03;58.22;101516.38;4103303;28;20013;-67
2023/05/01 04:47:57;;;;;;;;;;;;;;;8.04;58.25;101525.28;4087892;29;20057;-66
2023/05/01 04:50:00;;;;;;;;;;;;;;;8.02;57.84;101519.22;4073400;29;19964;-66
2023/05/01 04:52:03;;;;;;;;;;;;;;;8.00;57.99;101527.44;4088080;29;20025;-66
2023/05/01 04:54:16;;;;;;;;;;;;;;;8.05;58.00;101518.94;4104047;28;20524;-67
2023/05/01 04:56:18;;;;;;;;;;;;;;;8.09;57.76;101523.91;4088959;28;20017;-67
2023/05/01 04:58:22;;;;;;;;;;;;;;;8.12;57.46;101517.41;4088747;29;20029;-66
2023/05/01 05:00:27;;;;;;;;;;;;;;;8.12;56.95;101518.22;4088515;29;20473;-66
2023/05/01 05:02:32;;;;;;;;;;;;;;;8.18;57.64;101516.81;4102865;28;20014;-66
2023/05/01 05:04:34;;;;;;;;;;;;;;;8.20;56.90;101512.13;4088400;29;20015;-66
2023/05/01 05:06:37;;;;;;;;;;;;;;;8.25;57.15;101515.25;4105526;28;20030;-66
2023/05/01 05:08:42;;;;;;;;;;;;;;;8.27;56.84;101517.78;4072850;29;20025;-66
2023/05/01 05:10:47;;;;;;;;;;;;;;;8.25;56.42;101517.09;4088593;29;20389;-66
2023/05/01 05:12:59;;;;;;;;;;;;;;;8.26;56.37;101513.38;4088746;28;20030;-66
2023/05/01 05:15:01;;;;;;;;;;;;;;;8.26;56.19;101511.56;4105575;28;20005;-66
2023/05/01 05:17:05;;;;;;;;;;;;;;;8.29;56.31;101505.91;4074143;29;20025;-66
2023/05/01 05:19:07;;;;;;;;;;;;;;;8.34;56.19;101512.69;4105511;28;20013;-66
2023/05/01 05:21:13;;;;;;;;;;;;;;;8.33;55.71;101502.94;4088520;28;20407;-66
2023/05/01 05:23:23;;;;;;;;;;;;;;;8.33;56.04;101503.78;4087738;28;20019;-66
2023/05/01 05:25:25;;;;;;;;;;;;;;;8.35;55.59;101501.78;4088213;28;20456;-66
2023/05/01 05:27:27;;;;;;;;;;;;;;;8.38;55.56;101500.66;4088382;29;20029;-65
2023/05/01 05:29:30;;;;;;;;;;;;;;;8.37;55.02;101497.13;4087625;28;20406;-66
2023/05/01 05:31:32;;;;;;;;;;;;;;;8.37;55.19;101493.56;4072016;29;20457;-65
2023/05/01 05:33:34;;;;;;;;;;;;;;;8.37;55.13;101483.66;4088030;29;20017;-66
2023/05/01 05:35:38;;;;;;;;;;;;;;;8.39;55.03;101494.28;4103559;28;20034;-66
2023/05/01 05:37:40;;;;;;;;;;;;;;;8.40;54.92;101495.94;4105294;28;20037;-66
2023/05/01 05:39:44;;;;;;;;;;;;;;;8.46;55.21;101487.34;4073391;29;20025;-66
2023/05/01 05:41:45;;;;;;;;;;;;;;;8.52;55.03;101489.44;4087504;29;20070;-66
2023/05/01 05:43:48;;;;;;;;;;;;;;;8.60;54.73;101488.72;4087469;29;20025;-66
2023/05/01 05:45:50;;;;;;;;;;;;;;;8.64;54.40;101474.00;4088359;29;20005;-66
2023/05/01 05:47:52;;;;;;;;;;;;;;;8.64;54.10;101479.38;4102388;28;20025;-66
2023/05/01 05:49:55;;;;;;;;;;;;;;;8.66;54.20;101470.13;4105615;28;20017;-66
2023/05/01 05:51:57;;;;;;;;;;;;;;;8.69;53.60;101468.16;4087687;29;19941;-66
2023/05/01 05:54:01;;;;;;;;;;;;;;;8.72;54.02;101474.09;4088125;29;20013;-66
2023/05/01 05:56:06;;;;;;;;;;;;;;;8.74;53.93;101466.72;4103369;28;20569;-66
2023/05/01 05:58:08;;;;;;;;;;;;;;;8.80;53.77;101470.66;4104102;28;20025;-66
2023/05/01 06:00:13;;;;;;;;;;;;;;;8.81;53.45;101462.44;4105443;28;20030;-66
2023/05/01 06:02:17;;;;;;;;;;;;;;;8.85;53.49;101454.91;4071221;29;20030;-65
2023/05/01 06:04:19;;;;;;;;;;;;;;;8.88;53.56;101470.78;4103811;28;20648;-66
2023/05/01 06:06:21;;;;;;;;;;;;;;;8.91;53.57;101470.47;4104737;28;20021;-65
2023/05/01 06:08:24;;;;;;;;;;;;;;;8.97;53.20;101472.56;4088608;29;20025;-65
2023/05/01 06:10:26;;;;;;;;;;;;;;;9.01;52.87;101465.03;4087582;28;20046;-66
2023/05/01 06:12:30;;;;;;;;;;;;;;;9.02;52.44;101467.59;4103492;28;19958;-65
2023/05/01 06:14:33;;;;;;;;;;;;;;;9.04;52.27;101469.28;4088125;29;21015;-65
2023/05/01 06:16:35;;;;;;;;;;;;;;;9.08;52.81;101463.44;4103942;28;20013;-66
2023/05/01 06:18:37;;;;;;;;;;;;;;;9.14;52.20;101470.09;4104774;28;20369;-65
2023/05/01 06:20:39;;;;;;;;;;;;;;;9.18;52.38;101468.78;4087571;29;20037;-65
2023/05/01 06:22:41;;;;;;;;;;;;;;;9.22;52.61;101462.09;4104418;28;19931;-65
2023/05/01 06:24:51;;;;;;;;;;;;;;;9.28;52.10;101466.03;4072133;29;19930;-64
2023/05/01 06:26:55;;;;;;;;;;;;;;;9.33;51.67;101463.75;4102572;28;20018;-65
2023/05/01 06:28:58;;;;;;;;;;;;;;;9.36;51.29;101469.69;4105240;28;20016;-64
2023/05/01 06:31:02;;;;;;;;;;;;;;;9.40;51.39;101462.13;4088076;29;20026;-64
2023/05/01 06:33:08;;;;;;;;;;;;;;;9.43;51.30;101451.03;4101278;28;19926;-62
2023/05/01 06:35:11;;;;;;;;;;;;;;;9.48;51.24;101461.38;4087310;29;20022;-64
2023/05/01 06:37:13;;;;;;;;;;;;;;;9.51;51.29;101456.53;4105658;28;20017;-65
2023/05/01 06:39:15;;;;;;;;;;;;;;;9.59;51.66;101461.16;4104414;28;20029;-64
2023/05/01 06:41:17;;;;;;;;;;;;;;;9.64;50.95;101455.28;4087387;29;20480;-64
2023/05/01 06:43:20;;;;;;;;;;;;;;;9.67;51.01;101455.84;4087009;29;20418;-65
2023/05/01 06:45:23;;;;;;;;;;;;;;;9.70;50.69;101457.38;4075512;29;20029;-64
2023/05/01 06:47:25;;;;;;;;;;;;;;;9.73;51.27;101457.94;4089786;29;19958;-64
2023/05/01 06:49:27;;;;;;;;;;;;;;;9.79;51.38;101455.63;4107453;28;20371;-64
2023/05/01 06:51:30;;;;;;;;;;;;;;;9.83;51.64;101447.06;4090152;29;20049;-65
2023/05/01 06:53:32;;;;;;;;;;;;;;;9.90;51.36;101447.28;4074771;29;20398;-65
2023/05/01 06:55:34;;;;;;;;;;;;;;;9.95;51.26;101453.06;4106132;28;20024;-65
2023/05/01 06:57:36;;;;;;;;;;;;;;;10.00;51.26;101449.88;4106509;28;20037;-65
2023/05/01 06:59:39;;;;;;;;;;;;;;;10.03;51.01;101450.44;4106308;28;20017;-65
2023/05/01 07:01:42;;;;;;;;;;;;;;;10.07;51.25;101442.88;4105353;28;20041;-66
2023/05/01 07:03:45;;;;;;;;;;;;;;;10.11;51.18;101455.06;4107102;28;20448;-65
2023/05/01 07:05:47;;;;;;;;;;;;;;;10.15;51.45;101448.34;4106693;28;20020;-65
2023/05/01 07:07:50;;;;;;;;;;;;;;;10.21;51.57;101452.25;4107617;28;20037;-65
2023/05/01 07:09:52;;;;;;;;;;;;;;;10.26;51.34;101449.94;4107399;28;20029;-66
2023/05/01 07:11:55;;;;;;;;;;;;;;;10.29;51.00;101446.91;4106182;28;20020;-66
2023/05/01 07:13:58;;;;;;;;;;;;;;;10.33;50.89;101444.78;4107162;28;20914;-66
2023/05/01 07:16:01;;;;;;;;;;;;;;;10.36;51.26;101449.84;4106393;28;20468;-65
2023/05/01 07:18:05;;;;;;;;;;;;;;;10.37;50.58;101443.47;4106799;28;20017;-65
2023/05/01 07:20:09;;;;;;;;;;;;;;;10.40;51.25;101441.28;4107010;28;20029;-66
2023/05/01 07:22:11;;;;;;;;;;;;;;;10.44;51.37;101444.53;4106232;28;20017;-65
2023/05/01 07:24:13;;;;;;;;;;;;;;;10.51;51.07;101444.75;4107144;28;20026;-65
2023/05/01 07:26:15;;;;;;;;;;;;;;;10.55;51.25;101451.50;4106724;28;20367;-64
2023/05/01 07:28:19;;;;;;;;;;;;;;;10.60;51.27;101449.19;4106643;28;20017;-66
2023/05/01 07:30:21;;;;;;;;;;;;;;;10.65;51.16;101444.13;4106514;28;20033;-65
2023/05/01 07:32:23;;;;;;;;;;;;;;;10.69;51.07;101436.56;4106097;28;20005;-66
2023/05/01 07:34:26;;;;;;;;;;;;;;;10.71;51.29;101426.47;4107260;28;20383;-66
2023/05/01 07:36:28;;;;;;;;;;;;;;;10.73;51.22;101430.66;4105960;28;20017;-66
2023/05/01 07:38:30;;;;;;;;;;;;;;;10.75;51.22;101433.22;4106496;28;20025;-66
2023/05/01 07:40:32;;;;;;;;;;;;;;;10.77;51.23;101432.06;4090113;29;20073;-65
2023/05/01 07:42:35;;;;;;;;;;;;;;;10.80;51.33;101426.31;4090091;28;20017;-65
2023/05/01 07:44:37;;;;;;;;;;;;;;;10.84;51.41;101418.72;4106799;28;20041;-65
2023/05/01 07:46:39;;;;;;;;;;;;;;;10.88;51.09;101416.53;4105928;28;20362;-66
2023/05/01 07:48:41;;;;;;;;;;;;;;;10.94;50.66;101424.00;4105920;28;20014;-65
2023/05/01 07:50:44;;;;;;;;;;;;;;;10.99;50.00;101417.09;4107222;28;20464;-65
2023/05/01 07:52:46;;;;;;;;;;;;;;;11.02;49.90;101420.47;4105933;28;20021;-65
2023/05/01 07:54:49;;;;;;;;;;;;;;;11.06;50.76;101419.16;4106602;28;19927;-65
2023/05/01 07:56:51;;;;;;;;;;;;;;;11.08;50.07;101409.88;4107245;28;20453;-65
2023/05/01 07:58:53;;;;;;;;;;;;;;;11.10;50.70;101412.44;4107323;28;20020;-66
2023/05/01 08:00:55;;;;;;;;;;;;;;;11.13;50.12;101409.41;4105977;28;20030;-66
2023/05/01 08:02:57;;;;;;;;;;;;;;;11.16;50.49;101411.78;4105443;28;20028;-66
2023/05/01 08:04:59;;;;;;;;;;;;;;;11.20;50.64;101393.34;4105608;28;20049;-66
2023/05/01 08:07:03;;;;;;;;;;;;;;;11.22;49.88;101394.88;4105896;28;20029;-66
2023/05/01 08:09:05;;;;;;;;;;;;;;;11.27;50.00;101394.38;4103081;28;20433;-65
2023/05/01 08:11:08;;;;;;;;;;;;;;;11.29;50.27;101389.66;4105284;28;20021;-66
2023/05/01 08:13:11;;;;;;;;;;;;;;;11.32;50.76;101387.47;4105287;28;21618;-66
2023/05/01 08:15:13;;;;;;;;;;;;;;;11.34;50.56;101379.19;4105568;28;20370;-66
2023/05/01 08:17:15;;;;;;;;;;;;;;;11.34;50.59;101381.88;4106306;28;20042;-66
2023/05/01 08:19:17;;;;;;;;;;;;;;;11.38;49.65;101385.09;4106555;28;20021;-66
2023/05/01 08:21:19;;;;;;;;;;;;;;;11.38;49.81;101383.25;4105936;28;20461;-65
2023/05/01 08:23:23;;;;;;;;;;;;;;;11.41;50.17;101384.75;4104238;28;20026;-65
2023/05/01 08:25:26;;;;;;;;;;;;;;;11.43;49.99;101377.34;4106394;28;20037;-66
2023/05/01 08:27:28;;;;;;;;;;;;;;;11.49;49.71;101390.22;4105552;28;20022;-67
2023/05/01 08:29:30;;;;;;;;;;;;;;;11.54;49.30;101385.13;4106161;28;20026;-66
2023/05/01 08:31:32;;;;;;;;;;;;;;;11.56;49.72;101382.25;4105778;28;20607;-67
2023/05/01 08:33:34;;;;;;;;;;;;;;;11.56;50.00;101377.69;4105271;28;20021;-67
2023/05/01 08:35:36;;;;;;;;;;;;;;;11.57;49.03;101375.81;4105940;28;19957;-67
2023/05/01 08:37:37;;;;;;;;;;;;;;;11.58;49.71;101380.22;4106938;28;20021;-66
2023/05/01 08:39:41;;;;;;;;;;;;;;;11.60;50.02;101378.19;4106149;28;20013;-66
2023/05/01 08:41:45;;;;;;;;;;;;;;;11.64;49.21;101379.56;4105769;28;20025;-66
2023/05/01 08:43:47;;;;;;;;;;;;;;;11.67;49.46;101373.81;4106117;28;20037;-66
2023/05/01 08:45:49;;;;;;;;;;;;;;;11.67;49.90;101363.81;4105991;28;20021;-66
2023/05/01 08:47:51;;;;;;;;;;;;;;;11.69;48.96;101355.53;4104906;28;20002;-66
2023/05/01 08:49:53;;;;;;;;;;;;;;;11.72;48.89;101363.31;4106283;28;20033;-66
2023/05/01 08:51:55;;;;;;;;;;;;;;;11.72;49.01;101352.50;4105284;28;20021;-66
2023/05/01 08:53:58;;;;;;;;;;;;;;;11.74;48.45;101345.06;4105160;28;20005;-66
2023/05/01 08:56:01;;;;;;;;;;;;;;;11.81;47.60;101354.19;4105364;28;19977;-66
2023/05/01 08:58:03;;;;;;;;;;;;;;;11.93;48.05;101340.31;4105075;28;20017;-66
2023/05/01 09:00:06;;;;;;;;;;;;;;;11.98;47.61;101349.63;4106715;28;20018;-67
2023/05/01 09:02:09;;;;;;;;;;;;;;;12.01;48.40;101341.16;4104752;28;20013;-67
2023/05/01 09:04:11;;;;;;;;;;;;;;;12.07;48.01;101347.78;4105335;28;20021;-67
2023/05/01 09:06:13;;;;;;;;;;;;;;;12.13;47.70;101349.78;4105980;28;20021;-67
2023/05/01 09:08:15;;;;;;;;;;;;;;;12.20;47.44;101348.06;4105652;28;20018;-67
2023/05/01 09:10:17;;;;;;;;;;;;;;;12.24;48.42;101335.00;4104885;28;20021;-66
2023/05/01 09:12:23;;;;;;;;;;;;;;;12.22;47.81;101335.19;4071807;29;20014;-65
2023/05/01 09:14:25;;;;;;;;;;;;;;;12.21;47.83;101322.69;4105496;28;20452;-67
2023/05/01 09:16:27;;;;;;;;;;;;;;;12.18;48.23;101333.03;4104336;28;20376;-66
2023/05/01 09:18:30;;;;;;;;;;;;;;;12.20;47.41;101320.97;4105448;28;20025;-65
2023/05/01 09:20:32;;;;;;;;;;;;;;;12.25;48.23;101318.59;4105038;28;20391;-66
2023/05/01 09:22:35;;;;;;;;;;;;;;;12.32;47.80;101316.06;4104631;28;20029;-65
2023/05/01 09:24:37;;;;;;;;;;;;;;;12.37;48.10;101316.38;4105378;28;20028;-65
2023/05/01 09:26:40;;;;;;;;;;;;;;;12.41;48.10;101311.44;4104679;28;20024;-65
2023/05/01 09:28:44;;;;;;;;;;;;;;;12.40;46.17;101318.72;4104632;28;20391;-65
2023/05/01 09:30:47;;;;;;;;;;;;;;;12.41;46.93;101308.72;4103779;28;20420;-65
2023/05/01 09:32:51;;;;;;;;;;;;;;;12.45;47.42;101307.38;4101227;28;20005;-65
2023/05/01 09:34:54;;;;;;;;;;;;;;;12.48;47.71;101301.59;4102512;28;20056;-66
2023/05/01 09:36:56;;;;;;;;;;;;;;;12.57;47.84;101316.78;4103641;28;19930;-65
2023/05/01 09:38:59;;;;;;;;;;;;;;;12.64;47.72;101299.84;4103772;28;20017;-65
2023/05/01 09:41:03;;;;;;;;;;;;;;;12.65;46.90;101287.94;4104967;28;20034;-65
2023/05/01 09:43:08;;;;;;;;;;;;;;;12.63;47.54;101298.97;4102413;28;20041;-65
2023/05/01 09:45:13;;;;;;;;;;;;;;;12.66;47.63;101289.66;4099622;28;20024;-65
2023/05/01 09:47:21;;;;;;;;;;;;;;;12.70;47.59;101294.53;4103305;28;20012;-65
2023/05/01 09:49:35;;;;;;;;;;;;;;;12.80;46.85;101278.03;4105402;28;20341;-65
2023/05/01 09:51:38;;;;;;;;;;;;;;;12.81;47.02;101282.47;4105301;28;20021;-67
2023/05/01 09:53:40;;;;;;;;;;;;;;;12.80;46.36;101272.63;4104375;28;20017;-67
2023/05/01 09:55:43;;;;;;;;;;;;;;;12.80;45.39;101267.22;4104835;28;20021;-66
2023/05/01 09:57:46;;;;;;;;;;;;;;;12.80;46.99;101275.34;4104822;28;19927;-66
2023/05/01 10:00:01;;;;;;;;;;;;;;;12.82;45.79;101267.03;4104208;28;20032;-65
2023/05/01 10:02:07;;;;;;;;;;;;;;;12.81;46.82;101274.31;4104397;28;20038;-65
2023/05/01 10:04:09;;;;;;;;;;;;;;;12.84;46.51;101273.97;4105628;28;20024;-65
2023/05/01 10:06:11;;;;;;;;;;;;;;;12.87;46.80;101268.19;4104194;28;20026;-65
2023/05/01 10:08:14;;;;;;;;;;;;;;;12.92;46.87;101259.53;4104767;28;20480;-66
2023/05/01 10:10:17;;;;;;;;;;;;;;;12.89;46.40;101254.47;4104665;28;20029;-66
2023/05/01 10:12:25;;;;;;;;;;;;;;;12.86;46.17;101252.94;4104226;28;20469;-66
2023/05/01 10:14:29;;;;;;;;;;;;;;;12.89;46.88;101258.00;4105722;28;20025;-67
2023/05/01 10:16:31;;;;;;;;;;;;;;;12.97;46.78;101249.81;4106435;28;20020;-66
2023/05/01 10:18:34;;;;;;;;;;;;;;;13.02;46.99;101251.13;4107619;28;20459;-66
2023/05/01 10:20:36;;;;;;;;;;;;;;;13.09;46.72;101247.53;4107227;28;20021;-65
2023/05/01 10:22:38;;;;;;;;;;;;;;;13.09;46.86;101243.97;4106850;28;20119;-66
2023/05/01 10:24:40;;;;;;;;;;;;;;;13.11;46.42;101242.75;4107119;28;20025;-64
2023/05/01 10:26:43;;;;;;;;;;;;;;;13.11;46.02;101239.22;4108485;28;20038;-66
2023/05/01 10:28:46;;;;;;;;;;;;;;;13.16;45.92;101242.22;4105660;28;20020;-65
2023/05/01 10:30:48;;;;;;;;;;;;;;;13.26;45.92;101239.25;4105092;28;20025;-65
2023/05/01 10:32:53;;;;;;;;;;;;;;;13.32;45.57;101224.94;4103231;28;20020;-65
2023/05/01 10:34:57;;;;;;;;;;;;;;;13.38;46.10;101228.84;4107211;28;20009;-65
2023/05/01 10:37:00;;;;;;;;;;;;;;;13.40;45.38;101224.06;4106870;28;20029;-65
2023/05/01 10:39:03;;;;;;;;;;;;;;;13.41;45.18;101221.16;4107841;28;19960;-67